createdAt,value
2022-12-26T00:00:28.448Z,12.87
2022-12-26T00:01:28.373Z,12.87
2022-12-26T00:02:28.517Z,12.85
2022-12-26T00:03:28.441Z,12.85
2022-12-26T00:04:52.253Z,12.81
2022-12-26T00:05:29.346Z,12.81
2022-12-26T00:06:28.349Z,12.80
2022-12-26T00:07:28.336Z,12.81
2022-12-26T00:08:28.309Z,12.81
2022-12-26T00:09:28.303Z,12.81
2022-12-26T00:10:28.292Z,12.80
2022-12-26T00:11:28.264Z,12.81
2022-12-26T00:12:28.299Z,12.81
2022-12-26T00:13:39.789Z,12.85
2022-12-26T00:14:29.278Z,12.85
2022-12-26T00:15:28.236Z,12.85
2022-12-26T00:16:28.293Z,12.87
2022-12-26T00:17:28.226Z,12.88
2022-12-26T00:18:28.223Z,12.88
2022-12-26T00:19:28.187Z,12.89
2022-12-26T00:20:28.173Z,12.91
2022-12-26T00:21:28.189Z,12.91
2022-12-26T00:22:28.154Z,12.92
2022-12-26T00:23:28.170Z,12.94
2022-12-26T00:24:28.158Z,12.92
2022-12-26T00:25:28.115Z,12.94
2022-12-26T00:26:28.119Z,12.94
2022-12-26T00:27:28.118Z,12.91
2022-12-26T00:28:28.107Z,12.92
2022-12-26T00:29:28.069Z,12.91
2022-12-26T00:30:28.078Z,12.92
2022-12-26T00:31:28.163Z,12.92
2022-12-26T00:32:28.070Z,12.91
2022-12-26T00:33:28.042Z,12.91
2022-12-26T00:34:28.037Z,12.89
2022-12-26T00:35:28.032Z,12.87
2022-12-26T00:36:28.019Z,12.84
2022-12-26T00:37:27.987Z,12.81
2022-12-26T00:38:28.001Z,12.81
2022-12-26T00:39:27.984Z,12.80
2022-12-26T00:40:27.961Z,12.79
2022-12-26T00:41:27.968Z,12.79
2022-12-26T00:42:27.947Z,12.79
2022-12-26T00:43:27.921Z,12.77
2022-12-26T00:44:27.989Z,12.76
2022-12-26T00:45:27.912Z,12.73
2022-12-26T00:46:27.957Z,12.71
2022-12-26T00:47:27.911Z,12.71
2022-12-26T00:48:27.880Z,12.71
2022-12-26T00:49:27.885Z,12.71
2022-12-26T00:50:34.228Z,12.70
2022-12-26T00:51:28.851Z,12.69
2022-12-26T00:52:27.874Z,12.69
2022-12-26T00:53:27.825Z,12.67
2022-12-26T00:54:27.828Z,12.66
2022-12-26T00:55:27.793Z,12.63
2022-12-26T00:56:27.823Z,12.61
2022-12-26T00:57:27.783Z,12.61
2022-12-26T00:58:27.767Z,12.61
2022-12-26T00:59:27.763Z,12.59
2022-12-26T01:00:27.747Z,12.59
2022-12-26T01:01:27.839Z,12.59
2022-12-26T01:02:27.899Z,12.58
2022-12-26T01:03:27.770Z,12.58
2022-12-26T01:04:27.705Z,12.59
2022-12-26T01:05:27.696Z,12.59
2022-12-26T01:06:27.697Z,12.59
2022-12-26T01:07:27.678Z,12.58
2022-12-26T01:08:27.697Z,12.59
2022-12-26T01:09:27.646Z,12.59
2022-12-26T01:10:27.658Z,12.59
2022-12-26T01:11:27.637Z,12.62
2022-12-26T01:12:27.627Z,12.61
2022-12-26T01:13:27.617Z,12.59
2022-12-26T01:14:27.596Z,12.61
2022-12-26T01:15:27.596Z,12.61
2022-12-26T01:16:27.639Z,12.62
2022-12-26T01:17:27.577Z,12.62
2022-12-26T01:18:27.578Z,12.62
2022-12-26T01:19:27.548Z,12.61
2022-12-26T01:20:27.547Z,12.59
2022-12-26T01:21:27.529Z,12.59
2022-12-26T01:22:27.510Z,12.58
2022-12-26T01:23:27.524Z,12.56
2022-12-26T01:24:27.505Z,12.58
2022-12-26T01:25:27.468Z,12.58
2022-12-26T01:26:27.488Z,12.56
2022-12-26T01:27:27.447Z,12.58
2022-12-26T01:28:27.478Z,12.58
2022-12-26T01:29:27.448Z,12.61
2022-12-26T01:30:27.441Z,12.58
2022-12-26T01:31:27.478Z,12.58
2022-12-26T01:32:27.403Z,12.58
2022-12-26T01:33:27.438Z,12.58
2022-12-26T01:34:27.430Z,12.58
2022-12-26T01:35:27.361Z,12.56
2022-12-26T01:36:27.377Z,12.56
2022-12-26T01:37:27.352Z,12.56
2022-12-26T01:38:27.352Z,12.56
2022-12-26T01:39:27.322Z,12.55
2022-12-26T01:40:27.323Z,12.56
2022-12-26T01:41:27.327Z,12.54
2022-12-26T01:42:27.293Z,12.55
2022-12-26T01:43:27.295Z,12.55
2022-12-26T01:44:27.284Z,12.55
2022-12-26T01:45:27.279Z,12.54
2022-12-26T01:46:27.383Z,12.55
2022-12-26T01:47:27.244Z,12.54
2022-12-26T01:48:27.246Z,12.55
2022-12-26T01:49:27.224Z,12.54
2022-12-26T01:50:27.254Z,12.55
2022-12-26T01:51:27.204Z,12.55
2022-12-26T01:52:27.216Z,12.52
2022-12-26T01:53:27.176Z,12.54
2022-12-26T01:54:39.367Z,12.54
2022-12-26T01:55:28.176Z,12.54
2022-12-26T01:56:27.174Z,12.55
2022-12-26T01:57:27.147Z,12.52
2022-12-26T01:58:27.130Z,12.54
2022-12-26T01:59:27.130Z,12.52
2022-12-26T02:00:27.107Z,12.52
2022-12-26T02:01:27.183Z,12.54
2022-12-26T02:02:27.281Z,12.54
2022-12-26T02:03:27.209Z,12.55
2022-12-26T02:04:27.063Z,12.54
2022-12-26T02:05:27.049Z,12.56
2022-12-26T02:06:27.063Z,12.56
2022-12-26T02:07:27.042Z,12.58
2022-12-26T02:08:27.026Z,12.56
2022-12-26T02:09:27.011Z,12.56
2022-12-26T02:10:27.027Z,12.58
2022-12-26T02:11:26.999Z,12.56
2022-12-26T02:12:35.175Z,12.58
2022-12-26T02:13:27.960Z,12.58
2022-12-26T02:14:26.959Z,12.58
2022-12-26T02:15:26.929Z,12.56
2022-12-26T02:16:27.006Z,12.58
2022-12-26T02:17:26.957Z,12.59
2022-12-26T02:18:26.919Z,12.58
2022-12-26T02:19:26.920Z,12.58
2022-12-26T02:20:26.897Z,12.59
2022-12-26T02:21:26.912Z,12.58
2022-12-26T02:22:26.884Z,12.58
2022-12-26T02:23:26.872Z,12.58
2022-12-26T02:24:27.560Z,12.58
2022-12-26T02:25:26.851Z,12.56
2022-12-26T02:26:26.821Z,12.56
2022-12-26T02:27:26.840Z,12.55
2022-12-26T02:28:26.802Z,12.54
2022-12-26T02:29:26.790Z,12.52
2022-12-26T02:30:26.793Z,12.52
2022-12-26T02:31:26.802Z,12.52
2022-12-26T02:32:26.771Z,12.52
2022-12-26T02:33:26.779Z,12.51
2022-12-26T02:34:26.761Z,12.52
2022-12-26T02:35:26.727Z,12.51
2022-12-26T02:36:26.738Z,12.51
2022-12-26T02:37:26.723Z,12.51
2022-12-26T02:38:26.702Z,12.49
2022-12-26T02:39:44.442Z,12.49
2022-12-26T02:40:27.664Z,12.49
2022-12-26T02:41:26.673Z,12.49
2022-12-26T02:42:26.673Z,12.49
2022-12-26T02:43:26.639Z,12.48
2022-12-26T02:44:26.624Z,12.46
2022-12-26T02:45:26.638Z,12.44
2022-12-26T02:46:26.689Z,12.44
2022-12-26T02:47:26.604Z,12.43
2022-12-26T02:48:26.597Z,12.43
2022-12-26T02:49:26.575Z,12.43
2022-12-26T02:50:26.573Z,12.43
2022-12-26T02:51:26.566Z,12.43
2022-12-26T02:52:26.576Z,12.43
2022-12-26T02:53:26.544Z,12.46
2022-12-26T02:54:26.521Z,12.46
2022-12-26T02:55:26.537Z,12.46
2022-12-26T02:56:26.512Z,12.44
2022-12-26T02:57:26.499Z,12.44
2022-12-26T02:58:26.480Z,12.46
2022-12-26T02:59:56.469Z,12.46
2022-12-26T03:00:27.454Z,12.48
2022-12-26T03:01:26.605Z,12.48
2022-12-26T03:02:26.618Z,12.49
2022-12-26T03:03:26.586Z,12.52
2022-12-26T03:04:26.551Z,12.54
2022-12-26T03:05:26.430Z,12.54
2022-12-26T03:06:26.421Z,12.54
2022-12-26T03:07:26.383Z,12.55
2022-12-26T03:08:26.389Z,12.54
2022-12-26T03:09:26.385Z,12.52
2022-12-26T03:10:26.358Z,12.52
2022-12-26T03:11:26.368Z,12.52
2022-12-26T03:12:26.341Z,12.52
2022-12-26T03:13:26.310Z,12.51
2022-12-26T03:14:26.302Z,12.51
2022-12-26T03:15:26.301Z,12.51
2022-12-26T03:16:26.361Z,12.51
2022-12-26T03:17:26.282Z,12.46
2022-12-26T03:18:59.472Z,12.46
2022-12-26T03:19:27.281Z,12.46
2022-12-26T03:20:26.230Z,12.43
2022-12-26T03:21:26.226Z,12.44
2022-12-26T03:22:26.233Z,12.44
2022-12-26T03:23:26.202Z,12.43
2022-12-26T03:24:26.195Z,12.41
2022-12-26T03:25:26.203Z,12.41
2022-12-26T03:26:26.195Z,12.40
2022-12-26T03:27:26.163Z,12.40
2022-12-26T03:28:26.162Z,12.37
2022-12-26T03:29:26.163Z,12.38
2022-12-26T03:30:26.191Z,12.37
2022-12-26T03:31:26.139Z,12.37
2022-12-26T03:32:26.113Z,12.37
2022-12-26T03:33:26.114Z,12.38
2022-12-26T03:34:26.098Z,12.37
2022-12-26T03:35:26.092Z,12.38
2022-12-26T03:36:26.113Z,12.36
2022-12-26T03:37:26.068Z,12.38
2022-12-26T03:38:27.046Z,12.36
2022-12-26T03:39:26.068Z,12.36
2022-12-26T03:40:26.045Z,12.36
2022-12-26T03:41:26.044Z,12.36
2022-12-26T03:42:26.026Z,12.36
2022-12-26T03:43:26.005Z,12.34
2022-12-26T03:44:25.988Z,12.36
2022-12-26T03:45:25.967Z,12.34
2022-12-26T03:46:26.020Z,12.33
2022-12-26T03:47:25.984Z,12.33
2022-12-26T03:48:25.947Z,12.34
2022-12-26T03:49:25.928Z,12.33
2022-12-26T03:50:25.929Z,12.33
2022-12-26T03:51:25.906Z,12.34
2022-12-26T03:52:25.892Z,12.33
2022-12-26T03:53:25.899Z,12.34
2022-12-26T03:54:25.895Z,12.37
2022-12-26T03:55:25.883Z,12.38
2022-12-26T03:56:25.867Z,12.40
2022-12-26T03:57:25.861Z,12.40
2022-12-26T03:58:25.829Z,12.43
2022-12-26T03:59:25.867Z,12.43
2022-12-26T04:00:25.813Z,12.48
2022-12-26T04:01:25.881Z,12.48
2022-12-26T04:02:25.923Z,12.51
2022-12-26T04:03:25.856Z,12.54
2022-12-26T04:04:25.786Z,12.55
2022-12-26T04:05:25.771Z,12.59
2022-12-26T04:06:25.757Z,12.58
2022-12-26T04:07:25.766Z,12.62
2022-12-26T04:08:25.740Z,12.62
2022-12-26T04:09:25.719Z,12.66
2022-12-26T04:10:25.696Z,12.66
2022-12-26T04:11:25.708Z,12.67
2022-12-26T04:12:25.692Z,12.69
2022-12-26T04:13:25.702Z,12.67
2022-12-26T04:14:25.683Z,12.67
2022-12-26T04:15:25.754Z,12.67
2022-12-26T04:16:25.696Z,12.67
2022-12-26T04:17:25.630Z,12.67
2022-12-26T04:18:25.613Z,12.66
2022-12-26T04:19:25.677Z,12.66
2022-12-26T04:20:25.594Z,12.63
2022-12-26T04:21:25.603Z,12.66
2022-12-26T04:22:25.588Z,12.63
2022-12-26T04:23:25.573Z,12.66
2022-12-26T04:24:25.574Z,12.62
2022-12-26T04:25:48.463Z,12.62
2022-12-26T04:26:26.543Z,12.61
2022-12-26T04:27:25.534Z,12.59
2022-12-26T04:28:25.514Z,12.56
2022-12-26T04:29:25.515Z,12.58
2022-12-26T04:30:25.492Z,12.58
2022-12-26T04:31:25.528Z,12.58
2022-12-26T04:32:25.486Z,12.56
2022-12-26T04:33:25.476Z,12.56
2022-12-26T04:34:25.457Z,12.56
2022-12-26T04:35:25.445Z,12.55
2022-12-26T04:36:25.426Z,12.54
2022-12-26T04:37:25.428Z,12.54
2022-12-26T04:38:25.488Z,12.55
2022-12-26T04:39:25.398Z,12.56
2022-12-26T04:40:25.393Z,12.55
2022-12-26T04:41:25.385Z,12.56
2022-12-26T04:42:25.362Z,12.58
2022-12-26T04:43:48.112Z,12.58
2022-12-26T04:44:26.335Z,12.56
2022-12-26T04:45:25.353Z,12.59
2022-12-26T04:46:25.441Z,12.61
2022-12-26T04:47:25.319Z,12.59
2022-12-26T04:48:25.296Z,12.61
2022-12-26T04:49:25.342Z,12.62
2022-12-26T04:50:25.295Z,12.63
2022-12-26T04:51:25.270Z,12.63
2022-12-26T04:52:25.260Z,12.66
2022-12-26T04:53:25.274Z,12.67
2022-12-26T04:54:25.237Z,12.66
2022-12-26T04:55:25.232Z,12.67
2022-12-26T04:56:25.219Z,12.67
2022-12-26T04:57:25.222Z,12.67
2022-12-26T04:58:25.181Z,12.67
2022-12-26T04:59:25.183Z,12.69
2022-12-26T05:00:25.225Z,12.66
2022-12-26T05:01:25.309Z,12.67
2022-12-26T05:02:25.435Z,12.69
2022-12-26T05:03:25.208Z,12.67
2022-12-26T05:04:25.133Z,12.67
2022-12-26T05:05:25.132Z,12.69
2022-12-26T05:06:25.111Z,12.70
2022-12-26T05:07:25.132Z,12.70
2022-12-26T05:08:25.088Z,12.69
2022-12-26T05:09:25.062Z,12.70
2022-12-26T05:10:25.069Z,12.71
2022-12-26T05:11:25.051Z,12.70
2022-12-26T05:12:25.033Z,12.71
2022-12-26T05:13:25.032Z,12.71
2022-12-26T05:14:25.011Z,12.73
2022-12-26T05:15:25.033Z,12.74
2022-12-26T05:16:25.083Z,12.76
2022-12-26T05:17:24.977Z,12.77
2022-12-26T05:18:24.975Z,12.77
2022-12-26T05:19:24.976Z,12.79
2022-12-26T05:20:24.943Z,12.79
2022-12-26T05:21:24.949Z,12.81
2022-12-26T05:22:24.923Z,12.84
2022-12-26T05:23:24.916Z,12.81
2022-12-26T05:24:24.932Z,12.85
2022-12-26T05:25:24.908Z,12.85
2022-12-26T05:26:24.892Z,12.84
2022-12-26T05:27:24.878Z,12.85
2022-12-26T05:28:24.875Z,12.87
2022-12-26T05:29:24.882Z,12.87
2022-12-26T05:30:24.864Z,12.87
2022-12-26T05:31:28.313Z,12.88
2022-12-26T05:32:25.825Z,12.88
2022-12-26T05:33:24.819Z,12.88
2022-12-26T05:34:24.825Z,12.88
2022-12-26T05:35:24.788Z,12.88
2022-12-26T05:36:24.767Z,12.88
2022-12-26T05:37:24.809Z,12.87
2022-12-26T05:38:24.768Z,12.85
2022-12-26T05:39:24.770Z,12.87
2022-12-26T05:40:24.727Z,12.85
2022-12-26T05:41:24.739Z,12.85
2022-12-26T05:42:24.725Z,12.87
2022-12-26T05:43:24.717Z,12.87
2022-12-26T05:44:24.722Z,12.87
2022-12-26T05:45:24.695Z,12.87
2022-12-26T05:46:24.694Z,12.85
2022-12-26T05:47:24.677Z,12.88
2022-12-26T05:48:24.656Z,12.87
2022-12-26T05:49:24.651Z,12.87
2022-12-26T05:50:24.626Z,12.87
2022-12-26T05:51:24.627Z,12.85
2022-12-26T05:52:24.619Z,12.85
2022-12-26T05:53:24.601Z,12.85
2022-12-26T05:54:24.592Z,12.87
2022-12-26T05:55:24.592Z,12.87
2022-12-26T05:56:24.593Z,12.85
2022-12-26T05:57:24.560Z,12.85
2022-12-26T05:58:24.548Z,12.87
2022-12-26T05:59:24.543Z,12.87
2022-12-26T06:00:24.536Z,12.87
2022-12-26T06:01:24.580Z,12.87
2022-12-26T06:02:24.529Z,12.87
2022-12-26T06:03:24.516Z,12.85
2022-12-26T06:04:24.481Z,12.87
2022-12-26T06:05:24.482Z,12.87
2022-12-26T06:06:24.463Z,12.88
2022-12-26T06:07:24.466Z,12.88
2022-12-26T06:08:24.443Z,12.89
2022-12-26T06:09:24.440Z,12.89
2022-12-26T06:10:24.423Z,12.92
2022-12-26T06:11:24.423Z,12.92
2022-12-26T06:12:24.418Z,12.94
2022-12-26T06:13:24.395Z,12.96
2022-12-26T06:14:24.366Z,12.95
2022-12-26T06:15:24.372Z,12.95
2022-12-26T06:16:24.453Z,12.96
2022-12-26T06:17:24.360Z,12.96
2022-12-26T06:18:24.340Z,12.96
2022-12-26T06:19:24.337Z,12.98
2022-12-26T06:20:24.315Z,12.96
2022-12-26T06:21:24.306Z,12.98
2022-12-26T06:22:24.319Z,12.96
2022-12-26T06:23:24.267Z,12.98
2022-12-26T06:24:24.277Z,12.96
2022-12-26T06:25:24.265Z,12.96
2022-12-26T06:26:24.261Z,12.96
2022-12-26T06:27:24.245Z,12.95
2022-12-26T06:28:24.217Z,12.95
2022-12-26T06:29:24.228Z,12.94
2022-12-26T06:30:24.197Z,12.95
2022-12-26T06:31:24.279Z,12.94
2022-12-26T06:32:24.189Z,12.95
2022-12-26T06:33:24.165Z,12.94
2022-12-26T06:34:24.158Z,12.94
2022-12-26T06:35:24.158Z,12.92
2022-12-26T06:36:24.149Z,12.92
2022-12-26T06:37:24.129Z,12.91
2022-12-26T06:38:24.108Z,12.92
2022-12-26T06:39:24.114Z,12.89
2022-12-26T06:40:24.094Z,12.89
2022-12-26T06:41:24.084Z,12.89
2022-12-26T06:42:24.104Z,12.88
2022-12-26T06:43:24.067Z,12.88
2022-12-26T06:44:24.068Z,12.87
2022-12-26T06:45:24.032Z,12.85
2022-12-26T06:46:24.090Z,12.85
2022-12-26T06:47:24.019Z,12.84
2022-12-26T06:48:24.021Z,12.84
2022-12-26T06:49:28.726Z,12.84
2022-12-26T06:50:25.021Z,12.81
2022-12-26T06:51:24.018Z,12.81
2022-12-26T06:52:23.983Z,12.81
2022-12-26T06:53:23.968Z,12.80
2022-12-26T06:54:23.954Z,12.80
2022-12-26T06:55:23.924Z,12.79
2022-12-26T06:56:23.944Z,12.79
2022-12-26T06:57:23.922Z,12.76
2022-12-26T06:58:23.912Z,12.73
2022-12-26T06:59:23.939Z,12.74
2022-12-26T07:00:23.884Z,12.73
2022-12-26T07:01:24.073Z,12.73
2022-12-26T07:02:24.069Z,12.73
2022-12-26T07:03:23.843Z,12.73
2022-12-26T07:04:23.851Z,12.71
2022-12-26T07:05:23.837Z,12.73
2022-12-26T07:06:23.824Z,12.70
2022-12-26T07:07:23.795Z,12.69
2022-12-26T07:08:23.803Z,12.69
2022-12-26T07:09:27.125Z,12.69
2022-12-26T07:10:24.797Z,12.69
2022-12-26T07:11:23.773Z,12.67
2022-12-26T07:12:23.779Z,12.66
2022-12-26T07:13:23.737Z,12.67
2022-12-26T07:14:23.746Z,12.63
2022-12-26T07:15:23.728Z,12.66
2022-12-26T07:16:23.773Z,12.66
2022-12-26T07:17:23.696Z,12.63
2022-12-26T07:18:23.697Z,12.63
2022-12-26T07:19:23.669Z,12.63
2022-12-26T07:20:23.681Z,12.63
2022-12-26T07:21:23.669Z,12.62
2022-12-26T07:22:23.674Z,12.62
2022-12-26T07:23:23.639Z,12.59
2022-12-26T07:24:23.636Z,12.58
2022-12-26T07:25:23.623Z,12.58
2022-12-26T07:26:23.620Z,12.59
2022-12-26T07:27:23.597Z,12.59
2022-12-26T07:28:23.606Z,12.59
2022-12-26T07:29:23.580Z,12.59
2022-12-26T07:30:23.574Z,12.59
2022-12-26T07:31:23.597Z,12.59
2022-12-26T07:32:23.559Z,12.62
2022-12-26T07:33:23.525Z,12.61
2022-12-26T07:34:29.405Z,12.62
2022-12-26T07:35:24.502Z,12.63
2022-12-26T07:36:23.498Z,12.66
2022-12-26T07:37:23.521Z,12.66
2022-12-26T07:38:23.493Z,12.66
2022-12-26T07:39:23.461Z,12.67
2022-12-26T07:40:23.462Z,12.69
2022-12-26T07:41:23.451Z,12.69
2022-12-26T07:42:23.462Z,12.70
2022-12-26T07:43:23.423Z,12.71
2022-12-26T07:44:23.412Z,12.71
2022-12-26T07:45:23.512Z,12.73
2022-12-26T07:46:23.449Z,12.73
2022-12-26T07:47:23.391Z,12.76
2022-12-26T07:48:23.385Z,12.76
2022-12-26T07:49:23.361Z,12.79
2022-12-26T07:50:23.360Z,12.79
2022-12-26T07:51:23.355Z,12.79
2022-12-26T07:52:23.342Z,12.81
2022-12-26T07:53:23.323Z,12.81
2022-12-26T07:54:23.324Z,12.84
2022-12-26T07:55:23.306Z,12.81
2022-12-26T07:56:23.304Z,12.84
2022-12-26T07:57:47.360Z,12.84
2022-12-26T07:58:24.265Z,12.87
2022-12-26T07:59:23.258Z,12.87
2022-12-26T08:00:23.256Z,12.84
2022-12-26T08:01:23.376Z,12.84
2022-12-26T08:02:23.479Z,12.85
2022-12-26T08:03:23.305Z,12.87
2022-12-26T08:04:23.212Z,12.88
2022-12-26T08:05:23.217Z,12.89
2022-12-26T08:06:23.177Z,12.89
2022-12-26T08:07:23.436Z,12.91
2022-12-26T08:08:23.169Z,12.89
2022-12-26T08:09:23.192Z,12.92
2022-12-26T08:10:23.133Z,12.91
2022-12-26T08:11:23.199Z,12.89
2022-12-26T08:12:23.109Z,12.91
2022-12-26T08:13:23.108Z,12.91
2022-12-26T08:14:23.107Z,12.91
2022-12-26T08:15:23.373Z,12.91
2022-12-26T08:16:23.079Z,12.89
2022-12-26T08:17:23.087Z,12.91
2022-12-26T08:18:23.061Z,12.89
2022-12-26T08:19:23.060Z,12.88
2022-12-26T08:20:23.027Z,12.87
2022-12-26T08:21:23.020Z,12.85
2022-12-26T08:22:23.004Z,12.87
2022-12-26T08:23:23.009Z,12.85
2022-12-26T08:24:22.991Z,12.85
2022-12-26T08:25:23.059Z,12.85
2022-12-26T08:26:23.020Z,12.84
2022-12-26T08:27:22.949Z,12.84
2022-12-26T08:28:22.959Z,12.81
2022-12-26T08:29:22.950Z,12.81
2022-12-26T08:30:22.941Z,12.81
2022-12-26T08:31:22.938Z,12.80
2022-12-26T08:32:22.910Z,12.80
2022-12-26T08:33:22.911Z,12.80
2022-12-26T08:34:22.902Z,12.80
2022-12-26T08:35:22.869Z,12.81
2022-12-26T08:36:22.852Z,12.84
2022-12-26T08:37:22.877Z,12.81
2022-12-26T08:38:22.855Z,12.81
2022-12-26T08:39:22.830Z,12.81
2022-12-26T08:40:41.802Z,12.80
2022-12-26T08:41:23.793Z,12.80
2022-12-26T08:42:22.793Z,12.79
2022-12-26T08:43:42.174Z,12.79
2022-12-26T08:44:27.196Z,12.79
2022-12-26T08:45:22.754Z,12.79
2022-12-26T08:46:22.801Z,12.77
2022-12-26T08:47:22.743Z,12.77
2022-12-26T08:48:22.736Z,12.79
2022-12-26T08:49:22.713Z,12.79
2022-12-26T08:50:22.718Z,12.80
2022-12-26T08:51:22.703Z,12.79
2022-12-26T08:52:22.703Z,12.77
2022-12-26T08:53:22.687Z,12.77
2022-12-26T08:54:22.956Z,12.76
2022-12-26T08:55:22.677Z,12.76
2022-12-26T08:56:22.693Z,12.74
2022-12-26T08:57:22.639Z,12.77
2022-12-26T08:58:22.660Z,12.76
2022-12-26T08:59:22.604Z,12.76
2022-12-26T09:00:22.637Z,12.76
2022-12-26T09:01:22.760Z,12.74
2022-12-26T09:02:22.883Z,12.74
2022-12-26T09:03:22.665Z,12.71
2022-12-26T09:04:22.570Z,12.73
2022-12-26T09:05:22.538Z,12.71
2022-12-26T09:06:22.554Z,12.71
2022-12-26T09:07:22.536Z,12.69
2022-12-26T09:08:22.509Z,12.70
2022-12-26T09:09:22.500Z,12.70
2022-12-26T09:10:22.517Z,12.70
2022-12-26T09:11:22.495Z,12.71
2022-12-26T09:12:22.617Z,12.71
2022-12-26T09:13:22.450Z,12.69
2022-12-26T09:14:22.456Z,12.70
2022-12-26T09:15:22.453Z,12.67
2022-12-26T09:16:22.483Z,12.67
2022-12-26T09:17:22.781Z,12.71
2022-12-26T09:18:22.407Z,12.71
2022-12-26T09:19:22.398Z,12.70
2022-12-26T09:20:22.411Z,12.66
2022-12-26T09:21:22.385Z,12.63
2022-12-26T09:22:22.399Z,12.63
2022-12-26T09:23:22.362Z,12.62
2022-12-26T09:24:22.363Z,12.63
2022-12-26T09:25:22.340Z,12.62
2022-12-26T09:26:22.367Z,12.63
2022-12-26T09:27:22.300Z,12.63
2022-12-26T09:28:22.352Z,12.66
2022-12-26T09:29:22.344Z,12.69
2022-12-26T09:30:22.312Z,12.69
2022-12-26T09:31:22.317Z,12.70
2022-12-26T09:32:22.290Z,12.67
2022-12-26T09:33:22.251Z,12.67
2022-12-26T09:34:22.233Z,12.63
2022-12-26T09:35:22.222Z,12.62
2022-12-26T09:36:22.224Z,12.62
2022-12-26T09:37:22.205Z,12.62
2022-12-26T09:38:22.222Z,12.61
2022-12-26T09:39:22.189Z,12.58
2022-12-26T09:40:22.189Z,12.54
2022-12-26T09:41:22.158Z,12.46
2022-12-26T09:42:22.178Z,12.44
2022-12-26T09:43:22.176Z,12.44
2022-12-26T09:44:22.125Z,12.44
2022-12-26T09:45:22.151Z,12.46
2022-12-26T09:46:22.136Z,12.46
2022-12-26T09:47:22.091Z,12.44
2022-12-26T09:48:22.228Z,12.41
2022-12-26T09:49:22.076Z,12.40
2022-12-26T09:50:22.087Z,12.36
2022-12-26T09:51:22.091Z,12.33
2022-12-26T09:52:22.058Z,12.26
2022-12-26T09:53:22.037Z,12.23
2022-12-26T09:54:22.026Z,12.19
2022-12-26T09:55:22.010Z,12.16
2022-12-26T09:57:01.092Z,12.15
2022-12-26T09:57:22.995Z,12.08
2022-12-26T09:58:21.982Z,12.04
2022-12-26T09:59:21.963Z,12.03
2022-12-26T10:00:22.052Z,12.01
2022-12-26T10:01:22.041Z,12.01
2022-12-26T10:02:22.092Z,12.00
2022-12-26T10:03:21.920Z,12.01
2022-12-26T10:04:28.236Z,11.97
2022-12-26T10:05:22.916Z,11.97
2022-12-26T10:06:21.912Z,11.96
2022-12-26T10:07:21.884Z,11.93
2022-12-26T10:08:21.871Z,11.88
2022-12-26T10:09:22.153Z,11.87
2022-12-26T10:10:21.934Z,11.85
2022-12-26T10:11:21.865Z,11.82
2022-12-26T10:12:21.821Z,11.79
2022-12-26T10:13:21.827Z,11.77
2022-12-26T10:14:22.174Z,11.79
2022-12-26T10:15:21.822Z,11.79
2022-12-26T10:16:21.821Z,11.81
2022-12-26T10:17:21.782Z,11.81
2022-12-26T10:18:21.774Z,11.78
2022-12-26T10:19:21.752Z,11.79
2022-12-26T10:20:21.876Z,11.78
2022-12-26T10:21:21.746Z,11.78
2022-12-26T10:22:21.744Z,11.79
2022-12-26T10:23:21.713Z,11.81
2022-12-26T10:24:21.693Z,11.81
2022-12-26T10:25:21.709Z,11.81
2022-12-26T10:26:21.706Z,11.81
2022-12-26T10:27:21.665Z,11.79
2022-12-26T10:28:21.663Z,11.78
2022-12-26T10:29:21.672Z,11.79
2022-12-26T10:30:21.635Z,11.78
2022-12-26T10:31:21.695Z,11.77
2022-12-26T10:32:27.490Z,11.74
2022-12-26T10:33:22.624Z,11.77
2022-12-26T10:34:21.607Z,11.78
2022-12-26T10:35:21.588Z,11.75
2022-12-26T10:36:21.584Z,11.75
2022-12-26T10:37:21.563Z,11.75
2022-12-26T10:38:25.842Z,11.74
2022-12-26T10:39:22.581Z,11.74
2022-12-26T10:40:21.545Z,11.72
2022-12-26T10:41:21.513Z,11.70
2022-12-26T10:42:21.511Z,11.70
2022-12-26T10:43:21.494Z,11.70
2022-12-26T10:44:27.394Z,11.70
2022-12-26T10:45:22.486Z,11.74
2022-12-26T10:46:21.495Z,11.70
2022-12-26T10:47:21.477Z,11.72
2022-12-26T10:48:21.444Z,11.74
2022-12-26T10:49:21.440Z,11.74
2022-12-26T10:50:27.117Z,11.78
2022-12-26T10:51:22.419Z,11.77
2022-12-26T10:52:21.402Z,11.78
2022-12-26T10:53:21.400Z,11.78
2022-12-26T10:54:21.370Z,11.78
2022-12-26T10:55:29.272Z,11.81
2022-12-26T10:56:22.359Z,11.82
2022-12-26T10:57:21.360Z,11.82
2022-12-26T10:58:21.329Z,11.84
2022-12-26T10:59:21.396Z,11.84
2022-12-26T11:00:21.326Z,11.87
2022-12-26T11:01:21.430Z,11.85
2022-12-26T11:02:21.578Z,11.85
2022-12-26T11:03:21.420Z,11.88
2022-12-26T11:04:44.650Z,11.87
2022-12-26T11:05:40.330Z,11.87
2022-12-26T11:06:22.280Z,11.88
2022-12-26T11:07:21.232Z,11.90
2022-12-26T11:08:21.223Z,11.93
2022-12-26T11:09:21.245Z,11.93
2022-12-26T11:10:21.209Z,11.93
2022-12-26T11:11:21.257Z,11.90
2022-12-26T11:12:21.198Z,11.94
2022-12-26T11:13:21.207Z,11.94
2022-12-26T11:14:21.172Z,11.96
2022-12-26T11:15:21.162Z,11.96
2022-12-26T11:16:21.181Z,11.94
2022-12-26T11:17:21.163Z,11.94
2022-12-26T11:18:21.142Z,11.97
2022-12-26T11:19:21.121Z,11.96
2022-12-26T11:20:21.101Z,11.97
2022-12-26T11:21:21.125Z,11.97
2022-12-26T11:22:21.084Z,11.98
2022-12-26T11:23:21.084Z,12.01
2022-12-26T11:24:21.060Z,12.04
2022-12-26T11:25:21.044Z,12.05
2022-12-26T11:26:21.041Z,12.05
2022-12-26T11:27:21.033Z,12.05
2022-12-26T11:28:21.032Z,12.08
2022-12-26T11:29:21.017Z,12.05
2022-12-26T11:30:20.995Z,12.07
2022-12-26T11:31:21.045Z,12.11
2022-12-26T11:32:20.983Z,12.12
2022-12-26T11:33:20.976Z,12.15
2022-12-26T11:34:20.969Z,12.15
2022-12-26T11:35:20.948Z,12.16
2022-12-26T11:36:20.925Z,12.18
2022-12-26T11:37:20.934Z,12.18
2022-12-26T11:38:20.901Z,12.21
2022-12-26T11:39:20.912Z,12.21
2022-12-26T11:40:20.889Z,12.21
2022-12-26T11:41:20.869Z,12.19
2022-12-26T11:42:20.894Z,12.16
2022-12-26T11:43:20.870Z,12.15
2022-12-26T11:44:20.827Z,12.13
2022-12-26T11:45:20.850Z,12.11
2022-12-26T11:46:20.845Z,12.11
2022-12-26T11:47:20.829Z,12.13
2022-12-26T11:48:20.790Z,12.11
2022-12-26T11:49:20.787Z,12.11
2022-12-26T11:50:20.778Z,12.13
2022-12-26T11:51:20.781Z,12.12
2022-12-26T11:52:20.764Z,12.13
2022-12-26T11:53:20.752Z,12.12
2022-12-26T11:54:20.746Z,12.15
2022-12-26T11:55:20.746Z,12.15
2022-12-26T11:56:20.722Z,12.13
2022-12-26T11:57:20.709Z,12.13
2022-12-26T11:58:20.717Z,12.13
2022-12-26T11:59:20.679Z,12.12
2022-12-26T12:00:20.673Z,12.15
2022-12-26T12:01:20.737Z,12.15
2022-12-26T12:02:20.654Z,12.16
2022-12-26T12:03:20.654Z,12.16
2022-12-26T12:04:20.632Z,12.18
2022-12-26T12:05:20.624Z,12.18
2022-12-26T12:06:20.625Z,12.19
2022-12-26T12:07:20.613Z,12.19
2022-12-26T12:08:20.596Z,12.22
2022-12-26T12:09:20.583Z,12.26
2022-12-26T12:10:20.553Z,12.31
2022-12-26T12:11:20.577Z,12.36
2022-12-26T12:12:20.545Z,12.38
2022-12-26T12:13:20.547Z,12.43
2022-12-26T12:14:20.515Z,12.44
2022-12-26T12:15:20.517Z,12.49
2022-12-26T12:16:20.533Z,12.49
2022-12-26T12:17:20.484Z,12.51
2022-12-26T12:18:20.506Z,12.48
2022-12-26T12:19:20.474Z,12.49
2022-12-26T12:20:20.465Z,12.51
2022-12-26T12:21:20.438Z,12.51
2022-12-26T12:22:20.611Z,12.51
2022-12-26T12:23:20.434Z,12.49
2022-12-26T12:24:20.409Z,12.48
2022-12-26T12:25:20.408Z,12.49
2022-12-26T12:26:20.410Z,12.51
2022-12-26T12:27:20.376Z,12.51
2022-12-26T12:28:20.356Z,12.51
2022-12-26T12:29:20.368Z,12.48
2022-12-26T12:30:20.376Z,12.49
2022-12-26T12:31:20.366Z,12.52
2022-12-26T12:32:20.321Z,12.51
2022-12-26T12:33:20.317Z,12.51
2022-12-26T12:34:20.313Z,12.51
2022-12-26T12:35:20.311Z,12.51
2022-12-26T12:36:20.287Z,12.51
2022-12-26T12:37:20.297Z,12.49
2022-12-26T12:38:20.253Z,12.49
2022-12-26T12:39:20.247Z,12.48
2022-12-26T12:40:20.245Z,12.44
2022-12-26T12:41:20.218Z,12.41
2022-12-26T12:42:20.280Z,12.41
2022-12-26T12:43:20.199Z,12.40
2022-12-26T12:44:20.223Z,12.40
2022-12-26T12:45:20.201Z,12.41
2022-12-26T12:46:20.179Z,12.43
2022-12-26T12:47:20.159Z,12.43
2022-12-26T12:48:20.269Z,12.46
2022-12-26T12:49:20.166Z,12.51
2022-12-26T12:50:20.149Z,12.49
2022-12-26T12:51:20.130Z,12.52
2022-12-26T12:52:20.106Z,12.54